Time;durP1;ratioP1;P1;durP2;ratioP2;P2;SDS_P1;SDS_P2;PMS_P1;PMS_P2;Temp;Humidity;BMP_temperature;BMP_pressure;BME280_temperature;BME280_humidity;BME280_pressure;Samples;Min_cycle;Max_cycle;Signal;HPM_P1;HPM_P2
2023/05/10 00:00:57;;;;;;;1.02;1.02;;;9.90;98.50;;;;;;6005738;23;20149;-74
2023/05/10 00:03:23;;;;;;;0.63;0.63;;;9.90;98.50;;;;;;6006018;23;20184;-73
2023/05/10 00:05:49;;;;;;;0.90;0.90;;;9.90;98.50;;;;;;6004881;23;20192;-74
2023/05/10 00:08:14;;;;;;;0.68;0.68;;;9.80;98.50;;;;;;6006395;23;20159;-75
2023/05/10 00:10:40;;;;;;;0.75;0.75;;;9.90;98.50;;;;;;6005587;23;20195;-75
2023/05/10 00:13:06;;;;;;;0.82;0.82;;;9.80;98.50;;;;;;6006260;23;20519;-75
2023/05/10 00:15:32;;;;;;;1.05;1.05;;;9.80;98.50;;;;;;6005931;23;20176;-75
2023/05/10 00:17:58;;;;;;;0.90;0.90;;;9.80;98.50;;;;;;6006535;23;20156;-75
2023/05/10 00:20:23;;;;;;;1.08;1.00;;;9.70;98.50;;;;;;6006176;23;20597;-74
2023/05/10 00:22:49;;;;;;;0.80;0.80;;;9.70;98.50;;;;;;6006270;23;20149;-75
2023/05/10 00:25:15;;;;;;;0.88;0.88;;;9.60;98.50;;;;;;6006140;23;20165;-75
2023/05/10 00:27:40;;;;;;;1.05;1.05;;;9.60;98.50;;;;;;6006162;23;20251;-75
2023/05/10 00:30:07;;;;;;;1.08;1.08;;;9.60;98.50;;;;;;6006183;23;20160;-75
2023/05/10 00:32:32;;;;;;;0.90;0.90;;;9.50;98.50;;;;;;6006238;23;20227;-75
2023/05/10 00:34:58;;;;;;;0.90;0.90;;;9.50;98.50;;;;;;6005729;23;20219;-75
2023/05/10 00:37:24;;;;;;;1.23;1.13;;;9.50;98.50;;;;;;6005815;23;20235;-75
2023/05/10 00:39:49;;;;;;;1.42;1.33;;;9.50;98.50;;;;;;6005769;23;20232;-75
2023/05/10 00:42:15;;;;;;;0.85;0.85;;;9.40;98.50;;;;;;6005676;23;20156;-74
2023/05/10 00:44:41;;;;;;;1.20;1.20;;;9.40;98.50;;;;;;6006287;23;20164;-74
2023/05/10 00:47:07;;;;;;;1.03;1.03;;;9.40;98.50;;;;;;6005924;23;20168;-75
2023/05/10 00:49:32;;;;;;;1.40;1.40;;;9.40;98.50;;;;;;6006155;23;20136;-75
2023/05/10 00:51:58;;;;;;;0.82;0.82;;;9.40;98.50;;;;;;6006313;23;20153;-75
2023/05/10 00:54:24;;;;;;;1.30;1.30;;;9.30;98.50;;;;;;6006187;23;20163;-75
2023/05/10 00:56:50;;;;;;;1.33;1.33;;;9.30;98.50;;;;;;6005884;23;20152;-75
2023/05/10 00:59:17;;;;;;;1.30;1.30;;;9.30;98.50;;;;;;6006218;23;20149;-75
2023/05/10 01:01:44;;;;;;;1.20;1.20;;;9.30;98.50;;;;;;6005893;23;20155;-75
2023/05/10 01:04:12;;;;;;;1.60;1.50;;;9.30;98.50;;;;;;6006142;23;20148;-75
2023/05/10 01:06:39;;;;;;;1.27;1.27;;;9.30;98.50;;;;;;6004776;23;20187;-75
2023/05/10 01:09:05;;;;;;;1.10;1.10;;;9.30;98.50;;;;;;6005805;23;20571;-75
2023/05/10 01:11:31;;;;;;;1.10;1.10;;;9.30;98.50;;;;;;6006144;23;20217;-75
2023/05/10 01:13:58;;;;;;;2.67;1.33;;;9.20;98.50;;;;;;6004784;23;20231;-75
2023/05/10 01:16:26;;;;;;;1.83;1.50;;;9.30;98.50;;;;;;6005649;23;20191;-75
2023/05/10 01:18:52;;;;;;;2.60;1.50;;;9.30;98.50;;;;;;6005998;23;20223;-75
2023/05/10 01:21:31;;;;;;;1.30;1.30;;;9.30;98.50;;;;;;6005903;23;20492;-74
2023/05/10 01:24:12;;;;;;;1.17;1.17;;;9.30;98.50;;;;;;6005656;23;20172;-73
2023/05/10 01:26:47;;;;;;;1.37;1.37;;;9.30;98.50;;;;;;6005421;23;20475;-74
2023/05/10 01:29:50;;;;;;;1.30;1.30;;;9.30;98.50;;;;;;6005771;23;20171;-74
2023/05/10 01:32:22;;;;;;;1.10;1.10;;;9.30;98.50;;;;;;5989440;23;20172;-74
2023/05/10 01:35:22;;;;;;;1.13;1.13;;;9.30;98.50;;;;;;6005847;23;20625;-74
2023/05/10 01:38:07;;;;;;;1.27;1.27;;;9.30;98.50;;;;;;5995398;23;20160;-75
2023/05/10 01:40:48;;;;;;;0.95;0.95;;;9.30;98.50;;;;;;6005529;23;20148;-74
2023/05/10 01:43:31;;;;;;;0.70;0.70;;;9.20;98.50;;;;;;6005190;23;20176;-75
2023/05/10 01:46:14;;;;;;;5.00;1.00;;;9.20;98.50;;;;;;6005658;23;20204;-75
2023/05/10 01:48:53;;;;;;;1.07;0.90;;;9.10;98.50;;;;;;6006305;23;20164;-75
2023/05/10 01:51:31;;;;;;;0.77;0.77;;;9.10;98.50;;;;;;6005647;23;20201;-74
2023/05/10 01:54:01;;;;;;;1.03;0.80;;;9.00;98.50;;;;;;6005780;23;20136;-75
2023/05/10 01:56:31;;;;;;;0.60;0.60;;;9.00;98.50;;;;;;6005241;23;20542;-75
2023/05/10 01:58:58;;;;;;;0.60;0.60;;;8.90;98.50;;;;;;6005973;23;20623;-74
2023/05/10 02:01:26;;;;;;;1.00;0.65;;;8.90;98.50;;;;;;6005735;23;20657;-75
2023/05/10 02:03:55;;;;;;;0.60;0.60;;;8.80;98.50;;;;;;6005481;23;20158;-75
2023/05/10 02:06:21;;;;;;;0.60;0.60;;;8.80;98.50;;;;;;6005224;23;20164;-75
2023/05/10 02:08:50;;;;;;;0.60;0.60;;;8.80;98.50;;;;;;6004995;23;20157;-75
2023/05/10 02:11:18;;;;;;;0.70;0.70;;;8.80;98.50;;;;;;6005588;23;20161;-75
2023/05/10 02:13:47;;;;;;;0.60;0.60;;;8.80;98.50;;;;;;6006230;23;20183;-75
2023/05/10 02:16:13;;;;;;;0.83;0.77;;;8.70;98.50;;;;;;6005960;23;20191;-75
2023/05/10 02:18:40;;;;;;;0.80;0.80;;;8.70;98.50;;;;;;6005848;23;20156;-74
2023/05/10 02:21:07;;;;;;;0.80;0.80;;;8.60;98.50;;;;;;6005506;23;20149;-75
2023/05/10 02:23:35;;;;;;;0.93;0.90;;;8.60;98.50;;;;;;6006348;23;20168;-75
2023/05/10 02:26:02;;;;;;;1.43;0.90;;;8.50;98.20;;;;;;6008023;23;20175;-74
2023/05/10 02:28:29;;;;;;;5.10;0.80;;;8.40;98.00;;;;;;6007199;23;20153;-74
2023/05/10 02:30:55;;;;;;;0.87;0.87;;;8.30;96.20;;;;;;6007252;23;20669;-75
2023/05/10 02:33:22;;;;;;;0.80;0.80;;;8.20;95.10;;;;;;6006927;23;20153;-73
2023/05/10 02:35:48;;;;;;;0.70;0.70;;;8.10;94.80;;;;;;6006834;23;20259;-74
2023/05/10 02:38:15;;;;;;;1.00;0.73;;;8.10;95.20;;;;;;6006764;23;20232;-75
2023/05/10 02:40:42;;;;;;;1.10;1.10;;;8.00;94.50;;;;;;6007202;23;20156;-74
2023/05/10 02:43:13;;;;;;;0.70;0.70;;;8.00;94.20;;;;;;6007503;23;20513;-75
2023/05/10 02:45:40;;;;;;;1.03;0.97;;;7.90;95.00;;;;;;6007075;23;20140;-75
2023/05/10 02:48:06;;;;;;;11.33;0.90;;;7.80;94.50;;;;;;6007749;23;20588;-74
2023/05/10 02:50:33;;;;;;;1.13;1.13;;;7.80;94.10;;;;;;6007181;23;20232;-74
2023/05/10 02:53:10;;;;;;;0.77;0.77;;;7.80;93.70;;;;;;6006581;23;20153;-75
2023/05/10 02:55:40;;;;;;;2.30;0.87;;;7.70;93.80;;;;;;6007021;23;20177;-75
2023/05/10 02:58:06;;;;;;;0.70;0.70;;;7.70;93.70;;;;;;6007469;23;20160;-74
2023/05/10 03:00:32;;;;;;;0.80;0.80;;;7.60;94.20;;;;;;6006445;23;20204;-74
2023/05/10 03:02:58;;;;;;;0.80;0.73;;;7.60;94.20;;;;;;6007537;23;20160;-74
2023/05/10 03:05:23;;;;;;;2.80;1.07;;;7.60;94.20;;;;;;6006869;23;20163;-74
2023/05/10 03:07:51;;;;;;;0.70;0.70;;;7.60;93.90;;;;;;6007153;23;20153;-72
2023/05/10 03:10:17;;;;;;;0.80;0.80;;;7.60;93.80;;;;;;6007600;23;20156;-74
2023/05/10 03:13:12;;;;;;;0.93;0.90;;;7.60;94.80;;;;;;6007693;23;20181;-74
2023/05/10 03:16:07;;;;;;;1.10;1.10;;;7.60;94.10;;;;;;6007451;23;20177;-74
2023/05/10 03:18:47;;;;;;;5.63;1.00;;;7.60;94.60;;;;;;6005995;23;20161;-74
2023/05/10 03:21:15;;;;;;;1.30;1.20;;;7.60;94.40;;;;;;6007085;23;20216;-74
2023/05/10 03:23:47;;;;;;;0.90;0.90;;;7.60;94.10;;;;;;6005538;23;20165;-74
2023/05/10 03:26:20;;;;;;;1.03;1.03;;;7.60;94.00;;;;;;6006880;23;20191;-74
2023/05/10 03:28:48;;;;;;;1.03;1.03;;;7.60;94.10;;;;;;6007326;23;20148;-74
2023/05/10 03:31:14;;;;;;;1.13;1.13;;;7.60;94.20;;;;;;6006448;23;20695;-74
2023/05/10 03:33:47;;;;;;;1.53;1.00;;;7.70;94.20;;;;;;6006518;23;20159;-74
2023/05/10 03:36:13;;;;;;;1.80;1.03;;;7.70;94.60;;;;;;6006349;23;20184;-74
2023/05/10 03:38:38;;;;;;;0.90;0.90;;;7.70;94.70;;;;;;6005191;23;20179;-75
2023/05/10 03:41:04;;;;;;;1.00;1.00;;;7.70;94.10;;;;;;6006203;23;20181;-74
2023/05/10 03:43:29;;;;;;;7.30;1.30;;;7.70;94.40;;;;;;6006869;23;20227;-74
2023/05/10 03:45:55;;;;;;;0.90;0.90;;;7.70;94.60;;;;;;6006692;23;20160;-75
2023/05/10 03:48:21;;;;;;;1.10;1.10;;;7.70;94.20;;;;;;6006140;23;20169;-74
2023/05/10 03:50:49;;;;;;;0.90;0.90;;;7.80;94.00;;;;;;6006365;23;20605;-75
2023/05/10 03:53:15;;;;;;;0.73;0.73;;;7.80;94.40;;;;;;6004568;23;20165;-75
2023/05/10 03:55:40;;;;;;;0.80;0.73;;;7.80;94.60;;;;;;6006220;23;20184;-75
2023/05/10 03:58:06;;;;;;;1.60;1.13;;;7.90;94.50;;;;;;6006708;23;20631;-75
2023/05/10 04:00:32;;;;;;;1.03;1.03;;;7.90;94.80;;;;;;6006519;23;20149;-75
2023/05/10 04:02:58;;;;;;;1.00;1.00;;;8.00;94.90;;;;;;6004440;23;20545;-74
2023/05/10 04:05:24;;;;;;;2.97;1.00;;;8.00;95.00;;;;;;6006719;23;20161;-74
2023/05/10 04:07:50;;;;;;;1.27;1.17;;;8.00;94.60;;;;;;6005473;23;20168;-74
2023/05/10 04:10:16;;;;;;;1.93;1.10;;;8.00;94.80;;;;;;6005588;23;20152;-75
2023/05/10 04:12:42;;;;;;;1.10;1.10;;;8.00;94.60;;;;;;6006252;23;20176;-75
2023/05/10 04:15:08;;;;;;;1.20;1.10;;;8.00;94.30;;;;;;6005875;23;20191;-74
2023/05/10 04:17:34;;;;;;;1.00;1.00;;;8.00;94.50;;;;;;6006440;23;20152;-74
2023/05/10 04:19:59;;;;;;;1.10;1.10;;;8.00;94.50;;;;;;6005992;23;20248;-74
2023/05/10 04:22:25;;;;;;;0.73;0.73;;;8.00;95.00;;;;;;6006401;23;20247;-75
2023/05/10 04:24:51;;;;;;;0.77;0.77;;;8.10;94.90;;;;;;6006415;23;20661;-76
2023/05/10 04:27:16;;;;;;;0.97;0.97;;;8.10;94.80;;;;;;6006055;23;20162;-75
2023/05/10 04:29:42;;;;;;;2.20;1.40;;;8.20;94.20;;;;;;6004813;23;20164;-76
2023/05/10 04:32:09;;;;;;;1.30;1.20;;;8.10;94.40;;;;;;6002395;23;20160;-76
2023/05/10 04:34:36;;;;;;;1.20;1.10;;;8.20;94.20;;;;;;6005094;23;20193;-76
2023/05/10 04:37:02;;;;;;;0.83;0.83;;;8.20;94.10;;;;;;6006134;23;20242;-75
2023/05/10 04:39:27;;;;;;;1.17;1.07;;;8.20;93.90;;;;;;6004066;23;20261;-75
2023/05/10 04:41:53;;;;;;;1.50;1.50;;;8.20;93.80;;;;;;6004891;23;20168;-75
2023/05/10 04:44:18;;;;;;;1.50;1.40;;;8.30;94.10;;;;;;6004911;23;20174;-78
2023/05/10 04:46:44;;;;;;;1.50;1.43;;;8.30;94.60;;;;;;6005601;23;20235;-74
2023/05/10 04:49:10;;;;;;;1.33;1.23;;;8.30;95.00;;;;;;6003109;23;20145;-74
2023/05/10 04:51:35;;;;;;;1.20;1.07;;;8.30;95.40;;;;;;6002980;23;20175;-73
2023/05/10 04:54:01;;;;;;;1.70;1.60;;;8.30;95.00;;;;;;6000941;23;20216;-74
2023/05/10 04:56:27;;;;;;;1.67;1.67;;;8.30;95.30;;;;;;6003272;23;20180;-76
2023/05/10 04:58:53;;;;;;;1.43;1.33;;;8.40;95.20;;;;;;6003333;23;20160;-72
2023/05/10 05:01:18;;;;;;;1.03;1.03;;;8.40;95.20;;;;;;6003458;23;20601;-73
2023/05/10 05:03:44;;;;;;;1.47;1.37;;;8.40;95.00;;;;;;6005283;23;20160;-73
2023/05/10 05:06:09;;;;;;;1.10;1.10;;;8.50;94.40;;;;;;6006333;23;20164;-73
2023/05/10 05:08:35;;;;;;;1.30;1.20;;;8.60;94.60;;;;;;6006222;23;20676;-74
2023/05/10 05:11:01;;;;;;;1.50;1.50;;;8.60;94.10;;;;;;6006407;23;20248;-74
2023/05/10 05:13:26;;;;;;;1.50;1.50;;;8.70;94.40;;;;;;6005911;23;20152;-73
2023/05/10 05:15:53;;;;;;;1.37;1.37;;;8.70;94.50;;;;;;6006552;23;20214;-74
2023/05/10 05:18:18;;;;;;;1.20;1.20;;;8.70;94.00;;;;;;6004716;23;20156;-74
2023/05/10 05:20:44;;;;;;;1.53;1.43;;;8.70;93.40;;;;;;6006440;23;20163;-74
2023/05/10 05:23:10;;;;;;;1.83;1.70;;;8.70;93.40;;;;;;6006435;23;20194;-74
2023/05/10 05:25:36;;;;;;;1.53;1.50;;;8.70;93.80;;;;;;6006462;23;20307;-73
2023/05/10 05:28:01;;;;;;;1.50;1.50;;;8.80;93.70;;;;;;6006171;23;20176;-74
2023/05/10 05:30:27;;;;;;;1.53;1.53;;;8.80;93.00;;;;;;6005745;23;20153;-74
2023/05/10 05:32:53;;;;;;;1.60;1.60;;;8.80;93.30;;;;;;6004813;23;20210;-74
2023/05/10 05:35:18;;;;;;;2.23;1.60;;;8.80;93.10;;;;;;6006477;23;20675;-74
2023/05/10 05:37:44;;;;;;;2.23;1.37;;;8.80;92.70;;;;;;6006329;23;20159;-74
2023/05/10 05:40:13;;;;;;;3.07;1.33;;;8.80;93.00;;;;;;6006278;23;20594;-74
2023/05/10 05:42:39;;;;;;;1.90;1.80;;;8.90;93.30;;;;;;6004827;23;20616;-74
2023/05/10 05:45:05;;;;;;;1.50;1.45;;;8.90;93.00;;;;;;6006320;23;20216;-74
2023/05/10 05:47:31;;;;;;;2.88;2.70;;;8.90;93.50;;;;;;6006962;23;20168;-74
2023/05/10 05:49:56;;;;;;;1.97;1.80;;;8.90;93.60;;;;;;6006232;23;20232;-73
2023/05/10 05:52:22;;;;;;;1.63;1.63;;;8.90;93.50;;;;;;6006547;23;20178;-74
2023/05/10 05:54:48;;;;;;;5.27;1.83;;;8.90;93.90;;;;;;6006084;23;20658;-73
2023/05/10 05:57:13;;;;;;;2.87;1.63;;;8.90;93.60;;;;;;6006410;23;20520;-73
2023/05/10 05:59:43;;;;;;;1.80;1.70;;;8.90;93.40;;;;;;6007978;23;20189;-73
2023/05/10 06:02:10;;;;;;;2.07;1.83;;;8.80;93.30;;;;;;6007065;23;20241;-73
2023/05/10 06:04:36;;;;;;;1.40;1.40;;;8.80;93.20;;;;;;6007830;23;20502;-73
2023/05/10 06:07:01;;;;;;;1.87;1.77;;;8.70;93.30;;;;;;6008167;23;20244;-73
2023/05/10 06:09:27;;;;;;;1.90;1.80;;;8.70;94.00;;;;;;6006501;23;20708;-74
2023/05/10 06:11:53;;;;;;;2.60;1.60;;;8.70;94.20;;;;;;6007998;23;20606;-74
2023/05/10 06:14:20;;;;;;;1.60;1.60;;;8.60;94.90;;;;;;6007857;23;20159;-73
2023/05/10 06:16:46;;;;;;;1.90;1.80;;;8.60;94.90;;;;;;6006991;23;20188;-74
2023/05/10 06:19:12;;;;;;;2.57;1.57;;;8.70;95.10;;;;;;6007291;23;20297;-77
2023/05/10 06:21:37;;;;;;;2.80;2.00;;;8.70;95.10;;;;;;6007050;23;20157;-72
2023/05/10 06:24:03;;;;;;;3.17;2.97;;;8.80;94.80;;;;;;6006057;23;20744;-75
2023/05/10 06:26:29;;;;;;;2.10;2.00;;;8.80;94.20;;;;;;6006002;23;20165;-76
2023/05/10 06:28:55;;;;;;;2.20;2.10;;;8.90;95.70;;;;;;6007053;23;20613;-79
2023/05/10 06:31:20;;;;;;;2.38;2.28;;;8.90;94.90;;;;;;6007466;23;20156;-77
2023/05/10 06:33:46;;;;;;;1.70;1.67;;;9.00;94.40;;;;;;6006748;23;20584;-76
2023/05/10 06:36:13;;;;;;;2.40;1.90;;;9.10;94.20;;;;;;6006258;23;20675;-75
2023/05/10 06:38:38;;;;;;;1.92;1.80;;;9.10;93.60;;;;;;6007286;23;20182;-76
2023/05/10 06:41:04;;;;;;;1.67;1.58;;;9.10;93.30;;;;;;6006339;23;20177;-74
2023/05/10 06:43:30;;;;;;;2.35;2.22;;;9.20;93.40;;;;;;6006398;23;20580;-75
2023/05/10 06:45:55;;;;;;;1.73;1.73;;;9.20;93.20;;;;;;6006593;23;20515;-75
2023/05/10 06:48:21;;;;;;;1.98;1.75;;;9.20;93.40;;;;;;6006610;23;20241;-75
2023/05/10 06:50:47;;;;;;;3.03;2.08;;;9.30;93.50;;;;;;6006211;23;20632;-75
2023/05/10 06:53:13;;;;;;;2.00;1.90;;;9.30;92.80;;;;;;6005983;23;20155;-75
2023/05/10 06:55:39;;;;;;;1.65;1.65;;;9.40;91.90;;;;;;6006251;23;20191;-76
2023/05/10 06:58:04;;;;;;;2.38;1.63;;;9.40;91.60;;;;;;6006520;23;20232;-74
2023/05/10 07:00:30;;;;;;;1.85;1.80;;;9.40;91.60;;;;;;6006483;23;20221;-75
2023/05/10 07:02:56;;;;;;;2.25;2.08;;;9.40;91.30;;;;;;6006783;23;20153;-75
2023/05/10 07:05:22;;;;;;;2.22;2.13;;;9.40;91.40;;;;;;6006398;23;20157;-74
2023/05/10 07:07:47;;;;;;;3.80;2.42;;;9.40;91.50;;;;;;6006882;23;20148;-75
2023/05/10 07:10:13;;;;;;;8.77;2.13;;;9.40;91.30;;;;;;6006379;23;20157;-75
2023/05/10 07:12:39;;;;;;;2.33;2.20;;;9.40;90.80;;;;;;6006516;23;20148;-75
2023/05/10 07:15:05;;;;;;;1.58;1.55;;;9.40;89.90;;;;;;6006847;23;20187;-75
2023/05/10 07:17:33;;;;;;;4.45;1.98;;;9.40;90.10;;;;;;6006531;23;20216;-75
2023/05/10 07:19:58;;;;;;;3.83;2.38;;;9.30;90.50;;;;;;6006963;23;20219;-75
2023/05/10 07:22:24;;;;;;;2.15;2.05;;;9.30;90.20;;;;;;6006221;23;20159;-75
2023/05/10 07:24:50;;;;;;;2.78;2.03;;;9.40;89.70;;;;;;6006424;23;20673;-74
2023/05/10 07:27:16;;;;;;;2.38;2.28;;;9.40;90.20;;;;;;6005496;23;20624;-75
2023/05/10 07:33:03;;;;;;;2.38;1.70;;;9.30;89.40;;;;;;6006196;23;20143;-75
2023/05/10 07:35:29;;;;;;;2.03;1.92;;;9.30;90.10;;;;;;6005648;23;20633;-75
2023/05/10 07:37:54;;;;;;;1.65;1.65;;;9.40;90.10;;;;;;6006580;23;20637;-74
2023/05/10 07:40:20;;;;;;;2.97;1.83;;;9.40;90.10;;;;;;6005952;23;20231;-76
2023/05/10 07:42:46;;;;;;;7.25;2.50;;;9.40;90.50;;;;;;6006188;23;20210;-74
2023/05/10 07:45:11;;;;;;;1.98;1.95;;;9.50;90.20;;;;;;6006434;23;20168;-76
2023/05/10 07:47:37;;;;;;;2.08;1.98;;;9.50;89.30;;;;;;6006991;23;20189;-75
2023/05/10 07:50:03;;;;;;;2.35;2.15;;;9.50;89.80;;;;;;6005010;23;20168;-74
2023/05/10 07:52:29;;;;;;;2.28;2.17;;;9.50;90.20;;;;;;6002710;23;20523;-75
2023/05/10 07:54:56;;;;;;;1.60;1.52;;;9.60;90.00;;;;;;6005807;23;20271;-75
2023/05/10 07:57:22;;;;;;;3.25;2.90;;;9.60;88.70;;;;;;6006353;23;20689;-75
2023/05/10 07:59:48;;;;;;;6.70;2.60;;;9.60;89.30;;;;;;6006689;23;20160;-76
2023/05/10 08:02:13;;;;;;;2.70;2.60;;;9.70;88.90;;;;;;6006176;23;20149;-75
2023/05/10 08:04:39;;;;;;;2.65;2.47;;;9.70;89.00;;;;;;6005280;23;20764;-75
2023/05/10 08:07:05;;;;;;;2.80;2.67;;;9.70;89.10;;;;;;6005858;23;20594;-76
2023/05/10 08:09:30;;;;;;;2.60;2.40;;;9.70;88.80;;;;;;6006270;23;20216;-75
2023/05/10 08:11:56;;;;;;;2.20;2.13;;;9.70;88.40;;;;;;6003871;23;20163;-76
2023/05/10 08:14:22;;;;;;;2.67;2.55;;;9.70;88.40;;;;;;6005707;23;20159;-75
2023/05/10 08:16:47;;;;;;;4.43;2.38;;;9.80;88.80;;;;;;6005992;23;20271;-75
2023/05/10 08:19:13;;;;;;;2.55;2.45;;;9.80;88.60;;;;;;6006460;23;20157;-76
2023/05/10 08:21:40;;;;;;;2.70;2.60;;;9.90;88.10;;;;;;6003494;23;20161;-74
2023/05/10 08:24:06;;;;;;;2.25;2.20;;;9.90;88.00;;;;;;6004154;23;20171;-73
2023/05/10 08:26:32;;;;;;;2.33;2.22;;;10.00;87.70;;;;;;6004702;23;20692;-72
2023/05/10 08:28:58;;;;;;;2.70;2.60;;;10.00;87.80;;;;;;6005739;23;20577;-74
2023/05/10 08:31:23;;;;;;;3.08;2.75;;;10.00;87.00;;;;;;6000745;23;20187;-72
2023/05/10 08:33:51;;;;;;;3.28;2.97;;;10.00;88.10;;;;;;6005447;23;20153;-71
2023/05/10 08:36:21;;;;;;;2.28;2.17;;;10.10;88.30;;;;;;6004061;23;20222;-72
2023/05/10 08:38:53;;;;;;;3.05;2.85;;;10.10;87.40;;;;;;6006456;23;20153;-73
2023/05/10 08:41:24;;;;;;;2.67;2.47;;;10.10;88.70;;;;;;6006134;23;20285;-72
2023/05/10 08:43:50;;;;;;;4.53;2.67;;;10.20;89.40;;;;;;6006117;23;20155;-72
2023/05/10 08:46:18;;;;;;;3.08;2.88;;;10.20;89.30;;;;;;6006145;23;20213;-73
2023/05/10 08:48:48;;;;;;;2.72;2.63;;;10.20;88.70;;;;;;6006021;23;20182;-73
2023/05/10 08:51:17;;;;;;;2.60;2.50;;;10.20;88.70;;;;;;6006633;23;20224;-73
2023/05/10 08:53:44;;;;;;;2.58;2.47;;;10.20;88.50;;;;;;6004491;23;20164;-73
2023/05/10 08:56:10;;;;;;;3.13;2.92;;;10.30;89.00;;;;;;6005833;23;20187;-73
2023/05/10 08:58:36;;;;;;;2.88;2.72;;;10.20;89.70;;;;;;6006282;23;20185;-73
2023/05/10 09:01:02;;;;;;;3.03;2.83;;;10.30;90.10;;;;;;6006119;23;20153;-73
2023/05/10 09:03:29;;;;;;;2.75;2.65;;;10.30;89.80;;;;;;6005945;23;20156;-74
2023/05/10 09:05:58;;;;;;;3.20;3.00;;;10.40;90.10;;;;;;6005719;23;20650;-75
2023/05/10 09:08:28;;;;;;;2.72;2.42;;;10.50;89.60;;;;;;6006221;23;20157;-74
2023/05/10 09:10:54;;;;;;;2.50;2.35;;;10.50;88.80;;;;;;6005956;23;20243;-71
2023/05/10 09:13:22;;;;;;;2.33;2.22;;;10.40;87.70;;;;;;6004506;23;20203;-73
2023/05/10 09:15:48;;;;;;;2.75;2.65;;;10.40;89.00;;;;;;6006000;23;20651;-73
2023/05/10 09:18:14;;;;;;;3.05;2.67;;;10.40;89.00;;;;;;6006295;23;20323;-73
2023/05/10 09:20:40;;;;;;;2.92;2.72;;;10.40;88.90;;;;;;6004507;23;20207;-73
2023/05/10 09:23:06;;;;;;;4.15;2.63;;;10.40;88.60;;;;;;6006084;23;20163;-72
2023/05/10 09:25:35;;;;;;;2.85;2.67;;;10.30;88.20;;;;;;6004458;23;20527;-73
2023/05/10 09:28:01;;;;;;;2.75;2.58;;;10.20;88.40;;;;;;6006154;23;20613;-71
2023/05/10 09:30:29;;;;;;;2.90;2.70;;;10.20;88.90;;;;;;6006062;23;20149;-73
2023/05/10 09:32:56;;;;;;;2.53;2.42;;;10.20;88.90;;;;;;6005505;23;20235;-73
2023/05/10 09:35:24;;;;;;;2.55;2.45;;;10.20;88.30;;;;;;6006064;23;20218;-72
2023/05/10 09:37:53;;;;;;;2.65;2.45;;;10.20;88.20;;;;;;6001343;23;20164;-73
2023/05/10 09:40:24;;;;;;;3.03;2.92;;;10.30;87.70;;;;;;6004581;23;20251;-73
2023/05/10 09:43:03;;;;;;;3.08;2.97;;;10.40;88.90;;;;;;6005564;23;20141;-73
2023/05/10 09:45:34;;;;;;;3.10;2.90;;;10.50;88.70;;;;;;6002903;23;20180;-74
2023/05/10 09:48:02;;;;;;;2.47;2.40;;;10.60;87.70;;;;;;6002757;23;20199;-75
2023/05/10 09:50:28;;;;;;;3.28;3.05;;;10.60;87.00;;;;;;6000152;23;20163;-74
2023/05/10 09:52:58;;;;;;;3.22;3.03;;;10.60;86.00;;;;;;6002104;23;20635;-74
2023/05/10 09:55:37;;;;;;;2.85;2.65;;;10.60;86.90;;;;;;6003696;23;20206;-74
2023/05/10 09:58:04;;;;;;;2.92;2.80;;;10.60;86.00;;;;;;6002533;23;20081;-74
2023/05/10 10:00:35;;;;;;;3.28;3.03;;;10.60;86.20;;;;;;5999637;23;20172;-74
2023/05/10 10:03:03;;;;;;;2.78;2.67;;;10.60;86.00;;;;;;6003181;23;20236;-74
2023/05/10 10:05:33;;;;;;;2.47;2.47;;;10.60;85.70;;;;;;6003146;23;20174;-74
2023/05/10 10:08:00;;;;;;;3.28;3.00;;;10.70;85.90;;;;;;6004485;23;20137;-73
2023/05/10 10:10:27;;;;;;;2.75;2.65;;;10.70;85.90;;;;;;6005006;23;20164;-74
2023/05/10 10:12:53;;;;;;;3.10;2.90;;;10.60;85.00;;;;;;6004444;23;20157;-74
2023/05/10 10:15:20;;;;;;;2.83;2.72;;;10.70;86.60;;;;;;6004887;23;20176;-73
2023/05/10 10:17:47;;;;;;;3.97;2.80;;;10.80;85.50;;;;;;6005641;23;20165;-74
2023/05/10 10:20:14;;;;;;;3.28;3.10;;;10.90;86.30;;;;;;6005793;23;20153;-74
2023/05/10 10:22:39;;;;;;;2.72;2.63;;;11.00;86.10;;;;;;6005712;23;20153;-74
2023/05/10 10:25:06;;;;;;;3.17;2.97;;;11.10;86.00;;;;;;6005677;23;20279;-74
2023/05/10 10:27:46;;;;;;;3.22;2.42;;;11.20;85.20;;;;;;6003988;23;20157;-74
2023/05/10 10:30:45;;;;;;;2.90;2.65;;;11.40;85.70;;;;;;6005757;23;20193;-75
2023/05/10 10:33:48;;;;;;;2.53;2.40;;;11.20;83.50;;;;;;6005734;23;20151;-74
2023/05/10 10:36:15;;;;;;;2.47;2.38;;;11.10;83.80;;;;;;6004026;23;20546;-73
2023/05/10 10:38:47;;;;;;;2.42;2.33;;;11.20;84.20;;;;;;6005599;23;20160;-75
2023/05/10 10:41:36;;;;;;;3.63;2.85;;;11.20;85.10;;;;;;6005572;23;20232;-73
2023/05/10 10:44:33;;;;;;;2.08;1.98;;;11.10;83.50;;;;;;6006058;23;20220;-72
2023/05/10 10:47:11;;;;;;;1.83;1.77;;;11.00;84.50;;;;;;6006997;23;20587;-72
2023/05/10 10:49:43;;;;;;;2.60;2.25;;;11.00;84.50;;;;;;6007111;23;20172;-73
2023/05/10 10:52:28;;;;;;;3.03;2.30;;;10.90;84.30;;;;;;6007059;23;20148;-73
2023/05/10 10:55:00;;;;;;;2.60;2.08;;;10.90;84.50;;;;;;6007527;23;20510;-73
2023/05/10 10:57:26;;;;;;;2.03;1.95;;;10.90;84.70;;;;;;6005747;23;20160;-74
2023/05/10 11:00:12;;;;;;;2.17;2.08;;;10.90;86.10;;;;;;6007313;23;20175;-74
2023/05/10 11:02:41;;;;;;;2.47;2.35;;;11.00;85.10;;;;;;6005263;23;20803;-74
2023/05/10 11:05:32;;;;;;;2.70;2.42;;;11.00;84.10;;;;;;6007187;23;20556;-74
2023/05/10 11:07:59;;;;;;;3.20;2.10;;;11.00;84.20;;;;;;6007310;23;20546;-74
2023/05/10 11:10:26;;;;;;;2.63;2.45;;;11.10;84.80;;;;;;6007383;23;20212;-73
2023/05/10 11:13:02;;;;;;;2.55;2.45;;;11.10;84.70;;;;;;6007078;23;20563;-74
2023/05/10 11:15:38;;;;;;;2.00;1.90;;;11.20;84.50;;;;;;6007412;23;20188;-73
2023/05/10 11:18:23;;;;;;;2.53;2.42;;;11.20;83.60;;;;;;6007136;23;20530;-73
2023/05/10 11:20:57;;;;;;;2.10;2.05;;;11.30;83.80;;;;;;6007037;23;20676;-73
2023/05/10 11:23:23;;;;;;;2.13;2.03;;;11.30;84.40;;;;;;6006884;23;20136;-74
2023/05/10 11:25:50;;;;;;;2.40;2.30;;;11.30;83.30;;;;;;6006727;23;20204;-73
2023/05/10 11:28:18;;;;;;;1.95;1.92;;;11.30;83.90;;;;;;6007071;23;20639;-74
2023/05/10 11:30:45;;;;;;;3.90;2.22;;;11.40;84.40;;;;;;6006881;23;20184;-73
2023/05/10 11:33:16;;;;;;;2.30;2.20;;;11.40;83.30;;;;;;6007006;23;20203;-73
2023/05/10 11:35:42;;;;;;;2.50;2.40;;;11.40;83.10;;;;;;6006955;23;20200;-74
2023/05/10 11:38:09;;;;;;;1.83;1.75;;;11.50;83.70;;;;;;6007081;23;20156;-74
2023/05/10 11:40:36;;;;;;;2.60;2.40;;;11.40;83.20;;;;;;6006840;23;20293;-73
2023/05/10 11:43:02;;;;;;;2.22;2.13;;;11.40;83.80;;;;;;6007185;23;20216;-73
2023/05/10 11:45:29;;;;;;;3.35;2.40;;;11.40;84.30;;;;;;6005802;23;20160;-74
2023/05/10 11:47:56;;;;;;;3.60;3.30;;;11.40;84.60;;;;;;6003575;23;20404;-74
2023/05/10 11:50:22;;;;;;;2.50;2.30;;;11.40;84.10;;;;;;6004110;23;20240;-73
2023/05/10 11:52:56;;;;;;;16.33;2.50;;;11.50;83.90;;;;;;6004491;23;20228;-74
2023/05/10 11:55:23;;;;;;;2.70;1.90;;;11.50;84.30;;;;;;6003824;23;20278;-74
2023/05/10 11:57:55;;;;;;;2.08;2.00;;;11.50;85.00;;;;;;6005041;23;20148;-74
2023/05/10 12:00:21;;;;;;;2.05;1.95;;;11.50;84.60;;;;;;6002220;23;20152;-73
2023/05/10 12:02:48;;;;;;;2.28;2.08;;;11.40;83.90;;;;;;6003893;23;20612;-74
2023/05/10 12:05:14;;;;;;;1.95;1.90;;;11.50;84.80;;;;;;6005771;23;20157;-74
2023/05/10 12:07:39;;;;;;;2.30;2.20;;;11.50;84.40;;;;;;6006597;23;20156;-74
2023/05/10 12:10:06;;;;;;;2.63;2.53;;;11.50;84.80;;;;;;6005681;23;20157;-72
2023/05/10 12:12:47;;;;;;;2.25;2.15;;;11.50;84.20;;;;;;6005023;23;20180;-73
2023/05/10 12:15:23;;;;;;;1.90;1.90;;;11.50;84.00;;;;;;6004058;23;20218;-76
2023/05/10 12:17:50;;;;;;;2.42;2.33;;;11.50;83.90;;;;;;6006342;23;20150;-74
2023/05/10 12:20:20;;;;;;;2.72;2.63;;;11.50;84.50;;;;;;6005522;23;20259;-73
2023/05/10 12:22:57;;;;;;;2.72;2.55;;;11.60;84.40;;;;;;6006215;23;20144;-74
2023/05/10 12:25:24;;;;;;;2.22;2.13;;;11.60;84.70;;;;;;6006692;23;20554;-73
2023/05/10 12:27:57;;;;;;;2.97;2.15;;;11.70;83.70;;;;;;6005803;23;20219;-73
2023/05/10 12:30:25;;;;;;;2.45;2.28;;;11.60;83.20;;;;;;6005901;23;20159;-73
2023/05/10 12:32:51;;;;;;;2.25;2.25;;;11.60;83.70;;;;;;6006135;23;20225;-74
2023/05/10 12:35:20;;;;;;;2.58;2.45;;;11.60;84.20;;;;;;6004013;23;20651;-74
2023/05/10 12:37:46;;;;;;;7.25;2.45;;;11.60;83.20;;;;;;6006859;23;20157;-73
2023/05/10 12:40:12;;;;;;;3.05;2.63;;;11.50;83.10;;;;;;6005230;23;20270;-74
2023/05/10 12:42:38;;;;;;;3.05;2.85;;;11.40;83.40;;;;;;6003970;23;20184;-73
2023/05/10 12:45:05;;;;;;;3.58;2.70;;;11.40;84.00;;;;;;6003406;23;20164;-71
2023/05/10 12:47:32;;;;;;;3.20;2.40;;;11.40;84.10;;;;;;6005743;23;20164;-73
2023/05/10 12:49:59;;;;;;;2.95;2.60;;;11.40;84.00;;;;;;6006192;23;20157;-72
2023/05/10 12:52:25;;;;;;;2.25;2.15;;;11.50;84.40;;;;;;6005445;23;20847;-74
2023/05/10 12:54:52;;;;;;;2.78;2.55;;;11.50;84.10;;;;;;6005294;23;20152;-73
2023/05/10 12:57:18;;;;;;;2.42;2.22;;;11.40;84.10;;;;;;6002867;23;20235;-75
2023/05/10 12:59:43;;;;;;;3.33;2.25;;;11.50;84.50;;;;;;6004035;23;20204;-73
2023/05/10 13:02:09;;;;;;;3.03;2.83;;;11.50;84.10;;;;;;6002289;23;20514;-74